createdAt,value
2022-08-14T00:00:29.879Z,0.00
2022-08-14T00:01:30.239Z,0.00
2022-08-14T00:02:31.504Z,0.00
2022-08-14T00:03:29.775Z,0.00
2022-08-14T00:04:35.702Z,0.00
2022-08-14T00:05:30.331Z,0.00
2022-08-14T00:06:29.402Z,0.00
2022-08-14T00:07:29.305Z,0.00
2022-08-14T00:08:44.551Z,0.00
2022-08-14T00:09:32.913Z,0.00
2022-08-14T00:10:52.121Z,0.00
2022-08-14T00:11:31.846Z,0.00
2022-08-14T00:12:33.762Z,0.00
2022-08-14T00:13:30.978Z,0.00
2022-08-14T00:14:29.260Z,0.00
2022-08-14T00:15:29.999Z,0.00
2022-08-14T00:16:40.901Z,0.00
2022-08-14T00:17:30.188Z,0.00
2022-08-14T00:18:30.979Z,0.00
2022-08-14T00:19:30.173Z,0.00
2022-08-14T00:20:30.938Z,0.00
2022-08-14T00:21:31.113Z,0.00
2022-08-14T00:22:56.600Z,0.00
2022-08-14T00:23:30.156Z,0.00
2022-08-14T00:24:31.054Z,0.00
2022-08-14T00:25:41.603Z,0.00
2022-08-14T00:26:30.122Z,0.00
2022-08-14T00:27:29.730Z,0.00
2022-08-14T00:28:34.805Z,0.00
2022-08-14T00:29:30.062Z,0.00
2022-08-14T00:30:29.048Z,0.00
2022-08-14T00:31:34.705Z,0.00
2022-08-14T00:32:52.447Z,0.00
2022-08-14T00:33:49.210Z,0.00
2022-08-14T00:34:36.859Z,0.00
2022-08-14T00:36:36.817Z,0.00
2022-08-14T00:36:37.372Z,0.00
2022-08-14T00:37:29.987Z,0.00
2022-08-14T00:38:28.983Z,0.00
2022-08-14T00:39:28.981Z,0.00
2022-08-14T00:40:33.334Z,0.00
2022-08-14T00:41:29.924Z,0.00
2022-08-14T00:42:54.871Z,0.00
2022-08-14T00:43:32.315Z,0.00
2022-08-14T00:44:32.623Z,0.00
2022-08-14T00:45:30.606Z,0.00
2022-08-14T00:46:33.039Z,0.00
2022-08-14T00:47:28.859Z,0.00
2022-08-14T00:48:34.881Z,0.00
2022-08-14T00:49:30.271Z,0.00
2022-08-14T00:50:28.854Z,0.00
2022-08-14T00:51:36.853Z,0.00
2022-08-14T00:52:29.811Z,0.00
2022-08-14T00:53:28.806Z,0.00
2022-08-14T00:54:28.790Z,0.00
2022-08-14T00:55:30.151Z,0.00
2022-08-14T00:56:31.470Z,0.00
2022-08-14T00:57:28.960Z,0.00
2022-08-14T00:58:32.965Z,0.00
2022-08-14T00:59:29.017Z,0.00
2022-08-14T01:00:37.468Z,0.00
2022-08-14T01:01:29.769Z,0.00
2022-08-14T01:02:31.890Z,0.00
2022-08-14T01:03:28.716Z,0.00
2022-08-14T01:04:52.345Z,0.00
2022-08-14T01:05:41.771Z,0.00
2022-08-14T01:06:30.327Z,0.00
2022-08-14T01:07:28.638Z,0.00
2022-08-14T01:08:58.305Z,0.00
2022-08-14T01:09:29.622Z,0.00
2022-08-14T01:10:28.614Z,0.00
2022-08-14T01:11:31.529Z,0.00
2022-08-14T01:12:30.290Z,0.00
2022-08-14T01:13:28.588Z,0.00
2022-08-14T01:14:29.578Z,0.00
2022-08-14T01:15:31.757Z,0.00
2022-08-14T01:16:31.079Z,0.00
2022-08-14T01:17:28.533Z,0.00
2022-08-14T01:18:28.529Z,0.00
2022-08-14T01:19:28.505Z,0.00
2022-08-14T01:20:29.813Z,0.00
2022-08-14T01:21:28.484Z,0.00
2022-08-14T01:22:29.541Z,0.00
2022-08-14T01:23:41.824Z,0.00
2022-08-14T01:24:30.862Z,0.00
2022-08-14T01:25:29.443Z,0.00
2022-08-14T01:26:35.255Z,0.00
2022-08-14T01:27:29.828Z,0.00
2022-08-14T01:28:46.248Z,0.00
2022-08-14T01:29:59.053Z,0.00
2022-08-14T01:30:29.392Z,0.00
2022-08-14T01:31:28.374Z,0.00
2022-08-14T01:32:29.983Z,0.00
2022-08-14T01:33:28.366Z,0.00
2022-08-14T01:35:20.041Z,0.00
2022-08-14T01:36:05.496Z,0.00
2022-08-14T01:36:29.319Z,0.00
2022-08-14T01:37:29.298Z,0.00
2022-08-14T01:38:28.308Z,0.00
2022-08-14T01:39:28.342Z,0.00
2022-08-14T01:40:33.193Z,0.00
2022-08-14T01:41:30.175Z,0.00
2022-08-14T01:46:06.959Z,0.00
2022-08-14T01:47:01.275Z,0.00
2022-08-14T01:48:02.973Z,0.00
2022-08-14T01:48:58.637Z,0.00
2022-08-14T01:50:01.170Z,0.00
2022-08-14T01:50:57.592Z,0.00
2022-08-14T01:51:57.581Z,0.00
2022-08-14T01:52:59.055Z,0.00
2022-08-14T01:53:57.577Z,0.00
2022-08-14T01:54:58.350Z,0.00
2022-08-14T01:55:57.543Z,0.00
2022-08-14T01:56:57.531Z,0.00
2022-08-14T01:58:01.350Z,0.00
2022-08-14T01:58:58.517Z,0.00
2022-08-14T01:59:57.492Z,0.00
2022-08-14T02:00:57.487Z,0.00
2022-08-14T02:01:58.662Z,0.00
2022-08-14T02:02:57.634Z,0.00
2022-08-14T02:03:57.487Z,0.00
2022-08-14T02:04:57.891Z,0.00
2022-08-14T02:05:57.430Z,0.00
2022-08-14T02:06:57.420Z,0.00
2022-08-14T02:08:09.832Z,0.00
2022-08-14T02:08:58.406Z,0.00
2022-08-14T02:09:57.379Z,0.00
2022-08-14T02:10:57.368Z,0.00
2022-08-14T02:11:57.365Z,0.00
2022-08-14T02:12:57.620Z,0.00
2022-08-14T02:13:57.349Z,0.00
2022-08-14T02:15:00.469Z,0.00
2022-08-14T02:15:57.320Z,0.00
2022-08-14T02:16:57.310Z,0.00
2022-08-14T02:17:57.298Z,0.00
2022-08-14T02:18:57.296Z,0.00
2022-08-14T02:19:57.279Z,0.00
2022-08-14T02:20:57.288Z,0.00
2022-08-14T02:21:57.247Z,0.00
2022-08-14T02:22:58.241Z,0.00
2022-08-14T02:23:57.412Z,0.00
2022-08-14T02:24:57.219Z,0.00
2022-08-14T02:25:57.202Z,0.00
2022-08-14T02:28:20.277Z,0.00
2022-08-14T02:28:23.805Z,0.00
2022-08-14T02:28:59.777Z,0.00
2022-08-14T02:29:59.863Z,0.00
2022-08-14T02:30:57.145Z,0.00
2022-08-14T02:31:57.144Z,0.00
2022-08-14T02:32:57.129Z,0.00
2022-08-14T02:33:57.133Z,0.00
2022-08-14T02:34:57.100Z,0.00
2022-08-14T02:36:04.938Z,0.00
2022-08-14T02:37:03.510Z,0.00
2022-08-14T02:37:58.067Z,0.00
2022-08-14T02:38:57.071Z,0.00
2022-08-14T02:39:57.077Z,0.00
2022-08-14T02:40:57.040Z,0.00
2022-08-14T02:41:57.900Z,0.00
2022-08-14T02:42:57.602Z,0.00
2022-08-14T02:44:00.650Z,0.00
2022-08-14T02:44:56.995Z,0.00
2022-08-14T02:45:56.986Z,0.00
2022-08-14T02:47:01.136Z,0.00
2022-08-14T02:47:57.391Z,0.00
2022-08-14T02:49:02.533Z,0.00
2022-08-14T02:49:57.934Z,0.00
2022-08-14T02:50:56.930Z,0.00
2022-08-14T02:51:56.912Z,0.00
2022-08-14T02:53:02.986Z,0.00
2022-08-14T02:53:57.911Z,0.00
2022-08-14T02:54:56.883Z,0.00
2022-08-14T02:56:03.225Z,0.00
2022-08-14T02:57:16.077Z,0.00
2022-08-14T02:58:03.492Z,0.00
2022-08-14T02:59:00.246Z,0.00
2022-08-14T02:59:56.833Z,0.00
2022-08-14T03:00:57.401Z,0.00
2022-08-14T03:01:56.879Z,0.00
2022-08-14T03:02:58.798Z,0.00
2022-08-14T03:03:56.794Z,0.00
2022-08-14T03:04:56.767Z,0.00
2022-08-14T03:05:56.763Z,0.00
2022-08-14T03:07:06.086Z,0.00
2022-08-14T03:07:57.740Z,0.00
2022-08-14T03:08:56.737Z,0.00
2022-08-14T03:10:27.979Z,0.00
2022-08-14T03:10:57.705Z,0.00
2022-08-14T03:11:56.690Z,0.00
2022-08-14T03:12:56.682Z,0.00
2022-08-14T03:13:59.237Z,0.00
2022-08-14T03:14:56.657Z,0.00
2022-08-14T03:15:58.056Z,0.00
2022-08-14T03:16:56.638Z,0.00
2022-08-14T03:17:58.545Z,0.00
2022-08-14T03:18:56.632Z,0.00
2022-08-14T03:19:56.600Z,0.00
2022-08-14T03:20:56.588Z,0.00
2022-08-14T03:21:56.577Z,0.00
2022-08-14T03:22:56.575Z,0.00
2022-08-14T03:23:56.578Z,0.00
2022-08-14T03:24:56.544Z,0.00
2022-08-14T03:25:56.542Z,0.00
2022-08-14T03:26:57.597Z,0.00
2022-08-14T03:27:58.703Z,0.00
2022-08-14T03:28:56.518Z,0.00
2022-08-14T03:29:56.496Z,0.00
2022-08-14T03:30:56.484Z,0.00
2022-08-14T03:31:56.477Z,0.00
2022-08-14T03:32:56.461Z,0.00
2022-08-14T03:33:56.460Z,0.00
2022-08-14T03:34:56.439Z,0.00
2022-08-14T03:36:05.645Z,0.00
2022-08-14T03:37:37.937Z,0.00
2022-08-14T03:39:11.748Z,0.00
2022-08-14T03:39:14.228Z,0.00
2022-08-14T03:39:57.439Z,0.00
2022-08-14T03:40:56.366Z,0.00
2022-08-14T03:41:56.364Z,0.00
2022-08-14T03:42:57.350Z,0.00
2022-08-14T03:44:01.208Z,0.00
2022-08-14T03:45:26.903Z,0.00
2022-08-14T03:45:57.316Z,0.00
2022-08-14T03:46:56.440Z,0.00
2022-08-14T03:48:01.675Z,0.00
2022-08-14T03:48:57.295Z,0.00
2022-08-14T03:49:56.272Z,0.00
2022-08-14T03:50:56.274Z,0.00
2022-08-14T03:51:57.673Z,4.00
2022-08-14T03:52:57.428Z,4.00
2022-08-14T03:53:56.237Z,4.00
2022-08-14T03:54:56.211Z,0.00
2022-08-14T03:55:56.200Z,4.00
2022-08-14T03:56:56.189Z,4.00
2022-08-14T03:57:56.178Z,4.00
2022-08-14T03:58:56.188Z,4.00
2022-08-14T03:59:56.155Z,4.00
2022-08-14T04:00:56.199Z,8.00
2022-08-14T04:02:01.919Z,4.00
2022-08-14T04:02:57.128Z,8.00
2022-08-14T04:03:56.128Z,12.00
2022-08-14T04:04:56.107Z,12.00
2022-08-14T04:05:57.089Z,12.00
2022-08-14T04:06:58.828Z,12.00
2022-08-14T04:08:08.399Z,16.00
2022-08-14T04:08:58.035Z,20.00
2022-08-14T04:09:56.053Z,16.00
2022-08-14T04:10:56.034Z,20.00
2022-08-14T04:11:59.511Z,24.00
2022-08-14T04:12:56.020Z,28.00
2022-08-14T04:13:55.998Z,32.00
2022-08-14T04:14:56.012Z,36.00
2022-08-14T04:16:04.743Z,40.00
2022-08-14T04:16:56.966Z,40.00
2022-08-14T04:17:55.957Z,44.00
2022-08-14T04:18:55.954Z,48.00
2022-08-14T04:19:55.954Z,56.00
2022-08-14T04:20:56.051Z,56.00
2022-08-14T04:22:03.410Z,64.00
2022-08-14T04:22:56.900Z,68.00
2022-08-14T04:23:57.221Z,72.00
2022-08-14T04:24:55.903Z,76.00
2022-08-14T04:25:55.876Z,84.00
2022-08-14T04:26:55.860Z,92.00
2022-08-14T04:28:03.153Z,92.00
2022-08-14T04:29:08.975Z,100.00
2022-08-14T04:29:56.840Z,108.00
2022-08-14T04:30:55.814Z,116.00
2022-08-14T04:32:58.578Z,120.00
2022-08-14T04:33:04.453Z,128.00
2022-08-14T04:33:56.786Z,136.00
2022-08-14T04:34:55.794Z,144.00
2022-08-14T04:35:56.774Z,148.00
2022-08-14T04:36:55.748Z,160.00
2022-08-14T04:37:55.743Z,164.00
2022-08-14T04:38:55.727Z,172.00
2022-08-14T04:39:57.168Z,180.00
2022-08-14T04:40:55.706Z,188.00
2022-08-14T04:41:55.692Z,200.00
2022-08-14T04:42:55.693Z,208.00
2022-08-14T04:43:55.678Z,216.00
2022-08-14T04:45:00.573Z,224.00
2022-08-14T04:45:56.654Z,232.00
2022-08-14T04:46:57.764Z,244.00
2022-08-14T04:47:55.627Z,252.00
2022-08-14T04:48:59.953Z,264.00
2022-08-14T04:49:56.842Z,272.00
2022-08-14T04:50:55.593Z,280.00
2022-08-14T04:51:56.208Z,292.00
2022-08-14T04:52:55.797Z,300.00
2022-08-14T04:53:55.560Z,308.00
2022-08-14T04:54:55.570Z,316.00
2022-08-14T04:55:55.538Z,328.00
2022-08-14T04:56:55.529Z,340.00
2022-08-14T04:57:55.525Z,348.00
2022-08-14T04:58:55.514Z,360.00
2022-08-14T04:59:55.511Z,364.00
2022-08-14T05:00:55.491Z,376.00
2022-08-14T05:01:57.306Z,388.00
2022-08-14T05:02:55.470Z,400.00
2022-08-14T05:03:55.485Z,408.00
2022-08-14T05:04:57.261Z,420.00
2022-08-14T05:05:55.429Z,428.00
2022-08-14T05:06:55.592Z,440.00
2022-08-14T05:08:01.433Z,448.00
2022-08-14T05:08:59.711Z,460.00
2022-08-14T05:09:55.404Z,468.00
2022-08-14T05:10:55.385Z,480.00
2022-08-14T05:11:55.367Z,492.00
2022-08-14T05:13:24.223Z,504.00
2022-08-14T05:14:42.763Z,512.00
2022-08-14T05:14:56.421Z,532.00
2022-08-14T05:15:55.326Z,544.00
2022-08-14T05:16:55.314Z,564.00
2022-08-14T05:18:03.572Z,592.00
2022-08-14T05:19:17.871Z,628.00
2022-08-14T05:21:04.894Z,696.00
2022-08-14T05:21:55.893Z,788.00
2022-08-14T05:22:01.178Z,908.00
2022-08-14T05:22:56.356Z,1048.00
2022-08-14T05:23:55.504Z,1200.00
2022-08-14T05:24:55.235Z,1320.00
2022-08-14T05:25:55.215Z,1388.00
2022-08-14T05:26:55.337Z,1436.00
2022-08-14T05:27:55.184Z,1476.00
2022-08-14T05:28:55.173Z,1520.00
2022-08-14T05:29:56.840Z,1552.00
2022-08-14T05:30:55.159Z,1588.00
2022-08-14T05:31:56.022Z,1628.00
2022-08-14T05:32:55.129Z,1668.00
2022-08-14T05:33:57.085Z,1708.00
2022-08-14T05:34:55.129Z,1744.00
2022-08-14T05:35:55.094Z,1776.00
2022-08-14T05:37:02.461Z,1812.00
2022-08-14T05:37:56.077Z,1844.00
2022-08-14T05:38:55.377Z,1876.00
2022-08-14T05:39:55.241Z,1920.00
2022-08-14T05:40:55.041Z,1960.00
2022-08-14T05:41:55.028Z,1996.00
2022-08-14T05:42:55.026Z,2032.00
2022-08-14T05:43:55.008Z,2084.00
2022-08-14T05:44:55.256Z,2128.00
2022-08-14T05:45:55.024Z,2180.00
2022-08-14T05:46:54.980Z,2236.00
2022-08-14T05:47:54.961Z,2292.00
2022-08-14T05:48:54.952Z,2404.00
2022-08-14T05:49:54.953Z,2488.00
2022-08-14T05:50:54.937Z,2620.00
2022-08-14T05:51:54.918Z,2792.00
2022-08-14T05:52:55.334Z,2940.00
2022-08-14T05:54:00.161Z,3208.00
2022-08-14T05:54:55.906Z,3376.00
2022-08-14T05:55:54.874Z,3616.00
2022-08-14T05:56:55.240Z,4028.00
2022-08-14T05:57:54.857Z,4404.00
2022-08-14T05:58:54.849Z,4624.00
2022-08-14T05:59:54.849Z,4584.00
2022-08-14T06:00:54.817Z,4580.00
2022-08-14T06:01:54.890Z,4808.00
2022-08-14T06:02:54.797Z,4996.00
2022-08-14T06:03:54.857Z,5140.00
2022-08-14T06:04:54.801Z,5160.00
2022-08-14T06:05:54.761Z,5180.00
2022-08-14T06:06:54.758Z,5320.00
2022-08-14T06:07:54.741Z,5232.00
2022-08-14T06:08:54.736Z,4556.00
2022-08-14T06:09:54.732Z,4048.00
2022-08-14T06:10:54.715Z,3952.00
2022-08-14T06:11:54.696Z,3600.00
2022-08-14T06:12:55.922Z,3360.00
2022-08-14T06:13:54.679Z,3304.00
2022-08-14T06:14:54.681Z,3320.00
2022-08-14T06:15:54.659Z,3336.00
2022-08-14T06:16:54.642Z,3336.00
2022-08-14T06:17:59.207Z,3316.00
2022-08-14T06:18:55.619Z,3316.00
2022-08-14T06:19:54.629Z,3340.00
2022-08-14T06:20:54.601Z,3364.00
2022-08-14T06:21:59.164Z,3392.00
2022-08-14T06:22:55.586Z,3416.00
2022-08-14T06:23:54.572Z,3384.00
2022-08-14T06:24:54.575Z,3424.00
2022-08-14T06:25:54.555Z,3448.00
2022-08-14T06:27:03.945Z,3464.00
2022-08-14T06:27:55.525Z,3464.00
2022-08-14T06:28:54.510Z,3464.00
2022-08-14T06:29:54.523Z,3456.00
2022-08-14T06:30:54.496Z,3448.00
2022-08-14T06:32:00.496Z,3440.00
2022-08-14T06:32:55.781Z,3444.00
2022-08-14T06:35:11.405Z,3420.00
2022-08-14T06:35:11.553Z,3440.00
2022-08-14T06:35:55.430Z,3420.00
2022-08-14T06:36:54.427Z,3380.00
2022-08-14T06:37:54.414Z,3380.00
2022-08-14T06:38:54.405Z,3388.00
2022-08-14T06:39:54.505Z,3388.00
2022-08-14T06:40:54.375Z,3388.00
2022-08-14T06:41:57.626Z,3372.00
2022-08-14T06:42:54.733Z,3368.00
2022-08-14T06:43:54.351Z,3264.00
2022-08-14T06:44:54.344Z,3124.00
2022-08-14T06:45:54.697Z,3148.00
2022-08-14T06:46:54.311Z,3236.00
2022-08-14T06:47:54.298Z,3284.00
2022-08-14T06:48:54.289Z,3296.00
2022-08-14T06:49:57.670Z,3288.00
2022-08-14T06:50:54.265Z,3296.00
2022-08-14T06:51:54.261Z,3180.00
2022-08-14T06:52:54.248Z,3224.00
2022-08-14T06:53:54.231Z,3224.00
2022-08-14T06:54:54.244Z,3200.00
2022-08-14T06:55:59.545Z,3204.00
2022-08-14T06:56:57.094Z,3152.00
2022-08-14T06:57:54.197Z,3128.00
2022-08-14T06:58:54.182Z,3064.00
2022-08-14T06:59:54.182Z,2964.00
2022-08-14T07:00:54.193Z,2840.00
2022-08-14T07:01:56.711Z,2732.00
2022-08-14T07:02:54.139Z,2640.00
2022-08-14T07:03:54.124Z,2544.00
2022-08-14T07:04:54.130Z,2468.00
2022-08-14T07:05:57.535Z,2404.00
2022-08-14T07:06:55.496Z,2332.00
2022-08-14T07:07:55.078Z,2280.00
2022-08-14T07:08:54.078Z,2216.00
2022-08-14T07:09:54.082Z,2216.00
2022-08-14T07:10:54.049Z,2148.00
2022-08-14T07:11:54.037Z,2088.00
2022-08-14T07:12:56.677Z,2028.00
2022-08-14T07:13:55.034Z,1988.00
2022-08-14T07:14:58.252Z,1976.00
2022-08-14T07:15:55.348Z,1952.00
2022-08-14T07:16:53.991Z,1936.00
2022-08-14T07:17:54.087Z,1928.00
2022-08-14T07:18:53.962Z,1948.00
2022-08-14T07:19:53.971Z,2000.00
2022-08-14T07:20:53.948Z,2044.00
2022-08-14T07:21:53.930Z,2088.00
2022-08-14T07:22:56.454Z,2124.00
2022-08-14T07:23:53.911Z,2120.00
2022-08-14T07:24:53.914Z,2080.00
2022-08-14T07:25:53.895Z,2020.00
2022-08-14T07:26:53.877Z,1968.00
2022-08-14T07:27:53.865Z,1956.00
2022-08-14T07:28:53.853Z,1944.00
2022-08-14T07:29:53.842Z,1956.00
2022-08-14T07:30:53.846Z,1940.00
2022-08-14T07:31:53.833Z,1976.00
2022-08-14T07:32:53.812Z,1960.00
2022-08-14T07:33:53.806Z,1952.00
2022-08-14T07:34:53.796Z,1956.00
2022-08-14T07:35:57.534Z,1956.00
2022-08-14T07:37:00.620Z,1956.00
2022-08-14T07:37:54.754Z,1988.00
2022-08-14T07:38:53.747Z,2024.00
2022-08-14T07:39:53.812Z,2068.00
2022-08-14T07:40:53.738Z,2088.00
2022-08-14T07:41:53.722Z,2136.00
2022-08-14T07:42:53.708Z,2132.00
2022-08-14T07:43:56.049Z,2156.00
2022-08-14T07:44:53.687Z,2176.00
2022-08-14T07:45:53.899Z,2172.00
2022-08-14T07:46:53.664Z,2204.00
2022-08-14T07:47:53.652Z,2228.00
2022-08-14T07:48:53.648Z,2276.00
2022-08-14T07:49:55.449Z,2300.00
2022-08-14T07:50:57.235Z,2384.00
2022-08-14T07:51:54.598Z,2484.00
2022-08-14T07:52:53.591Z,2592.00
2022-08-14T07:53:56.776Z,2764.00
2022-08-14T07:54:53.580Z,2820.00
2022-08-14T07:56:00.236Z,2852.00
2022-08-14T07:56:56.704Z,2876.00
2022-08-14T07:57:53.542Z,2916.00
2022-08-14T07:58:53.535Z,2956.00
2022-08-14T07:59:53.525Z,2952.00
2022-08-14T08:00:56.392Z,2920.00
2022-08-14T08:01:53.506Z,2896.00
2022-08-14T08:02:55.792Z,2876.00
2022-08-14T08:03:56.908Z,2736.00
2022-08-14T08:04:58.849Z,2576.00
2022-08-14T08:05:54.471Z,2496.00
2022-08-14T08:06:53.439Z,2460.00
2022-08-14T08:07:53.434Z,2368.00
2022-08-14T08:09:01.008Z,2460.00
2022-08-14T08:09:54.423Z,2376.00
2022-08-14T08:11:03.055Z,2328.00
2022-08-14T08:11:57.397Z,2392.00
2022-08-14T08:12:53.385Z,2476.00
2022-08-14T08:13:54.473Z,2508.00
2022-08-14T08:14:56.082Z,2660.00
2022-08-14T08:15:54.364Z,2696.00
2022-08-14T08:16:53.337Z,2836.00
2022-08-14T08:18:01.348Z,2816.00
2022-08-14T08:18:58.278Z,2744.00
2022-08-14T08:19:54.305Z,2760.00
2022-08-14T08:20:53.623Z,2808.00
2022-08-14T08:21:53.277Z,2772.00
2022-08-14T08:22:55.616Z,2852.00
2022-08-14T08:23:53.263Z,2864.00
2022-08-14T08:24:53.247Z,2884.00
2022-08-14T08:25:53.259Z,2996.00
2022-08-14T08:26:53.229Z,3008.00
2022-08-14T08:27:53.212Z,3052.00
2022-08-14T08:28:53.201Z,3084.00
2022-08-14T08:29:53.198Z,3152.00
2022-08-14T08:30:53.200Z,3164.00
2022-08-14T08:31:53.176Z,3188.00
2022-08-14T08:32:53.157Z,3180.00
2022-08-14T08:33:53.155Z,3280.00
2022-08-14T08:34:53.136Z,3268.00
2022-08-14T08:35:53.151Z,3364.00
2022-08-14T08:36:53.123Z,3528.00
2022-08-14T08:38:00.930Z,3492.00
2022-08-14T08:39:17.976Z,3416.00
2022-08-14T08:40:02.678Z,3464.00
2022-08-14T08:40:54.147Z,3468.00
2022-08-14T08:41:54.136Z,3472.00
2022-08-14T08:42:54.398Z,3544.00
2022-08-14T08:43:54.039Z,3632.00
2022-08-14T08:44:53.094Z,3752.00
2022-08-14T08:45:53.072Z,3884.00
2022-08-14T08:46:53.039Z,3900.00
2022-08-14T08:47:53.097Z,3888.00
2022-08-14T08:49:59.914Z,3892.00
2022-08-14T08:50:54.006Z,3848.00
2022-08-14T08:51:52.970Z,3664.00
2022-08-14T08:52:52.946Z,3608.00
2022-08-14T08:53:52.929Z,3584.00
2022-08-14T08:54:52.929Z,3644.00
2022-08-14T08:55:52.928Z,3768.00
2022-08-14T08:56:52.905Z,3784.00
2022-08-14T08:57:52.895Z,3784.00
2022-08-14T08:58:52.873Z,3860.00
2022-08-14T08:59:54.642Z,4012.00
2022-08-14T09:00:54.359Z,4248.00
2022-08-14T09:01:56.460Z,4316.00
2022-08-14T09:02:52.840Z,4360.00
2022-08-14T09:03:52.832Z,4760.00
2022-08-14T09:04:53.618Z,4872.00
2022-08-14T09:05:53.983Z,6092.00
2022-08-14T09:07:09.565Z,5724.00
2022-08-14T09:07:56.558Z,6272.00
2022-08-14T09:08:52.766Z,12236.00
2022-08-14T09:09:54.369Z,15968.00
2022-08-14T09:10:56.395Z,8832.00
2022-08-14T09:11:52.741Z,6812.00
2022-08-14T09:12:52.729Z,6304.00
2022-08-14T09:13:52.937Z,6420.00
2022-08-14T09:14:52.702Z,6276.00
2022-08-14T09:15:52.712Z,6304.00
2022-08-14T09:16:52.696Z,6888.00
2022-08-14T09:17:52.679Z,7108.00
2022-08-14T09:18:53.360Z,7196.00
2022-08-14T09:19:52.648Z,7436.00
2022-08-14T09:20:52.657Z,7644.00
2022-08-14T09:21:55.027Z,7856.00
2022-08-14T09:22:52.957Z,8056.00
2022-08-14T09:24:28.679Z,8716.00
2022-08-14T09:24:53.598Z,10148.00
2022-08-14T09:25:59.955Z,13440.00
2022-08-14T09:26:53.578Z,38688.00
2022-08-14T09:27:52.571Z,40096.00
2022-08-14T09:28:53.520Z,25152.00
2022-08-14T09:29:54.103Z,21312.00
2022-08-14T09:30:52.551Z,33728.00
2022-08-14T09:31:53.169Z,49568.00
2022-08-14T09:32:59.264Z,47808.00
2022-08-14T09:33:56.473Z,13568.00
2022-08-14T09:34:58.727Z,9116.00
2022-08-14T09:35:55.034Z,7948.00
2022-08-14T09:36:52.466Z,9552.00
2022-08-14T09:37:53.909Z,10376.00
2022-08-14T09:38:52.451Z,8500.00
2022-08-14T09:39:52.482Z,7848.00
2022-08-14T09:40:52.441Z,7020.00
2022-08-14T09:42:21.684Z,6748.00
2022-08-14T09:42:53.746Z,6656.00
2022-08-14T09:43:52.394Z,6460.00
2022-08-14T09:44:52.387Z,6404.00
2022-08-14T09:45:53.860Z,6320.00
2022-08-14T09:46:52.360Z,10420.00
2022-08-14T09:47:52.476Z,7104.00
2022-08-14T09:48:52.339Z,6732.00
2022-08-14T09:49:53.399Z,6888.00
2022-08-14T09:50:52.333Z,6824.00
2022-08-14T09:51:58.813Z,7164.00
2022-08-14T09:52:54.919Z,7300.00
2022-08-14T09:54:18.711Z,7396.00
2022-08-14T09:54:53.279Z,7512.00
2022-08-14T09:55:52.289Z,7336.00
2022-08-14T09:56:59.470Z,7248.00
2022-08-14T09:57:53.253Z,7136.00
2022-08-14T09:58:52.237Z,7244.00
2022-08-14T09:59:52.233Z,7200.00
2022-08-14T10:00:52.812Z,7228.00
2022-08-14T10:01:53.045Z,7732.00
2022-08-14T10:02:52.257Z,7568.00
2022-08-14T10:03:52.431Z,7748.00
2022-08-14T10:04:52.174Z,7892.00
2022-08-14T10:05:52.183Z,7804.00
2022-08-14T10:06:52.166Z,7536.00
2022-08-14T10:07:53.552Z,7364.00
2022-08-14T10:08:53.142Z,7312.00
2022-08-14T10:10:01.972Z,7516.00
2022-08-14T10:11:02.495Z,7352.00
2022-08-14T10:11:58.775Z,7308.00
2022-08-14T10:12:55.034Z,7308.00
2022-08-14T10:13:53.673Z,7300.00
2022-08-14T10:14:53.121Z,7328.00
2022-08-14T10:15:52.089Z,7412.00
2022-08-14T10:16:52.051Z,7440.00
2022-08-14T10:17:53.232Z,7512.00
2022-08-14T10:18:52.031Z,7584.00
2022-08-14T10:19:52.024Z,7616.00
2022-08-14T10:20:52.026Z,7616.00
2022-08-14T10:23:06.336Z,7608.00
2022-08-14T10:23:11.746Z,7624.00
2022-08-14T10:23:53.136Z,7612.00
2022-08-14T10:24:51.976Z,7596.00
2022-08-14T10:25:52.936Z,7596.00
2022-08-14T10:26:51.959Z,7600.00
2022-08-14T10:27:56.934Z,7596.00
2022-08-14T10:29:14.171Z,7596.00
2022-08-14T10:29:52.929Z,7592.00
2022-08-14T10:30:51.930Z,7584.00
2022-08-14T10:31:51.909Z,7528.00
2022-08-14T10:32:52.500Z,7568.00
2022-08-14T10:33:51.885Z,7568.00
2022-08-14T10:34:52.692Z,7588.00
2022-08-14T10:35:51.888Z,7584.00
2022-08-14T10:37:02.645Z,7612.00
2022-08-14T10:37:52.865Z,7616.00
2022-08-14T10:38:52.039Z,7612.00
2022-08-14T10:40:02.144Z,7604.00
2022-08-14T10:40:59.332Z,7556.00
2022-08-14T10:41:54.081Z,7428.00
2022-08-14T10:42:51.796Z,7368.00
2022-08-14T10:43:51.788Z,7268.00
2022-08-14T10:44:52.584Z,7336.00
2022-08-14T10:45:59.570Z,7336.00
2022-08-14T10:47:39.186Z,7312.00
2022-08-14T10:48:08.010Z,7172.00
2022-08-14T10:48:52.737Z,7184.00
2022-08-14T10:49:53.342Z,7204.00
2022-08-14T10:50:51.777Z,7264.00
2022-08-14T10:51:51.717Z,7208.00
2022-08-14T10:52:51.704Z,7120.00
2022-08-14T10:53:55.735Z,7128.00
2022-08-14T10:54:56.275Z,7204.00
2022-08-14T10:55:51.671Z,7364.00
2022-08-14T10:56:51.674Z,7428.00
2022-08-14T10:57:51.659Z,7696.00
2022-08-14T10:58:51.652Z,7896.00
2022-08-14T10:59:51.639Z,8204.00
2022-08-14T11:00:51.641Z,10740.00
2022-08-14T11:01:51.619Z,40224.00
2022-08-14T11:02:54.984Z,2252.00
2022-08-14T11:03:56.726Z,2540.00
2022-08-14T11:04:52.628Z,62880.00
2022-08-14T11:05:55.620Z,74080.00
2022-08-14T11:06:51.586Z,24992.00
2022-08-14T11:07:52.293Z,22304.00
2022-08-14T11:08:51.549Z,17984.00
2022-08-14T11:09:51.535Z,8900.00
2022-08-14T11:10:52.856Z,3140.00
2022-08-14T11:11:55.195Z,5852.00
2022-08-14T11:12:51.505Z,2864.00
2022-08-14T11:13:51.496Z,2472.00
2022-08-14T11:14:51.490Z,2884.00
2022-08-14T11:15:52.667Z,4028.00
2022-08-14T11:16:53.352Z,7260.00
2022-08-14T11:17:51.462Z,8040.00
2022-08-14T11:18:51.447Z,8156.00
2022-08-14T11:19:53.939Z,7848.00
2022-08-14T11:20:51.430Z,7420.00
2022-08-14T11:21:51.438Z,6764.00
2022-08-14T11:22:55.889Z,6380.00
2022-08-14T11:23:53.446Z,6060.00
2022-08-14T11:24:55.851Z,5892.00
2022-08-14T11:25:53.209Z,5776.00
2022-08-14T11:26:51.385Z,5652.00
2022-08-14T11:27:51.362Z,5484.00
2022-08-14T11:28:51.344Z,5400.00
2022-08-14T11:29:52.527Z,5280.00
2022-08-14T11:30:54.419Z,5336.00
2022-08-14T11:31:51.747Z,5452.00
2022-08-14T11:32:51.313Z,5392.00
2022-08-14T11:33:51.313Z,5496.00
2022-08-14T11:34:51.291Z,5428.00
2022-08-14T11:35:51.281Z,5416.00
2022-08-14T11:37:17.919Z,5408.00
2022-08-14T11:37:52.262Z,5372.00
2022-08-14T11:38:51.541Z,5204.00
2022-08-14T11:39:51.436Z,5152.00
2022-08-14T11:40:52.579Z,5204.00
2022-08-14T11:41:55.844Z,5156.00
2022-08-14T11:42:58.367Z,5184.00
2022-08-14T11:43:57.880Z,5216.00
2022-08-14T11:44:53.619Z,5340.00
2022-08-14T11:45:52.199Z,5260.00
2022-08-14T11:46:51.179Z,5272.00
2022-08-14T11:48:12.546Z,5324.00
2022-08-14T11:49:02.018Z,5312.00
2022-08-14T11:49:52.169Z,5140.00
2022-08-14T11:50:51.126Z,5232.00
2022-08-14T11:51:53.797Z,5196.00
2022-08-14T11:52:51.162Z,4956.00
2022-08-14T11:53:51.104Z,4904.00
2022-08-14T11:54:51.081Z,5148.00
2022-08-14T11:55:51.072Z,5008.00
2022-08-14T11:56:51.083Z,5096.00
2022-08-14T11:58:00.029Z,5072.00
2022-08-14T11:58:52.039Z,5048.00
2022-08-14T11:59:51.037Z,5100.00
2022-08-14T12:00:52.519Z,5116.00
2022-08-14T12:01:51.028Z,5128.00
2022-08-14T12:03:02.555Z,4948.00
2022-08-14T12:03:57.454Z,5048.00
2022-08-14T12:04:52.020Z,5128.00
2022-08-14T12:05:50.969Z,5188.00
2022-08-14T12:06:51.632Z,5260.00
2022-08-14T12:07:50.949Z,5204.00
2022-08-14T12:08:52.790Z,5208.00
2022-08-14T12:09:50.940Z,5208.00
2022-08-14T12:10:51.924Z,5260.00
2022-08-14T12:11:51.664Z,5132.00
2022-08-14T12:12:51.729Z,5280.00
2022-08-14T12:13:56.042Z,5360.00
2022-08-14T12:14:51.883Z,5400.00
2022-08-14T12:15:51.474Z,5400.00
2022-08-14T12:16:50.869Z,5316.00
2022-08-14T12:17:50.845Z,5492.00
2022-08-14T12:18:50.851Z,5460.00
2022-08-14T12:19:53.949Z,5448.00
2022-08-14T12:20:52.400Z,5452.00
2022-08-14T12:21:51.756Z,5536.00
2022-08-14T12:22:52.757Z,5740.00
2022-08-14T12:23:50.786Z,5684.00
2022-08-14T12:24:50.784Z,6116.00
2022-08-14T12:25:59.452Z,5840.00
2022-08-14T12:26:51.778Z,3276.00
2022-08-14T12:27:54.105Z,3376.00
2022-08-14T12:28:59.395Z,5028.00
2022-08-14T12:29:51.724Z,5124.00
2022-08-14T12:30:53.670Z,5344.00
2022-08-14T12:31:51.774Z,5312.00
2022-08-14T12:32:50.820Z,5500.00
2022-08-14T12:33:53.854Z,5548.00
2022-08-14T12:34:50.679Z,5316.00